Time;durP1;ratioP1;P1;durP2;ratioP2;P2;SDS_P1;SDS_P2;PMS_P1;PMS_P2;Temp;Humidity;BMP_temperature;BMP_pressure;BME280_temperature;BME280_humidity;BME280_pressure;Samples;Min_cycle;Max_cycle;Signal;HPM_P1;HPM_P2
2022/12/21 00:00:08;;;;;;;12.50;7.30;;;;;;;-1.25;69.34;99334.61;102362;1299;73092;-24
2022/12/21 00:02:39;;;;;;;16.00;7.50;;;;;;;-1.35;69.76;99333.90;102330;1302;61269;-24
2022/12/21 00:05:07;;;;;;;13.70;7.50;;;;;;;-1.54;70.15;99338.31;102357;1299;61652;-24
2022/12/21 00:07:35;;;;;;;15.10;7.90;;;;;;;-1.66;70.31;99338.14;102097;1299;74775;-24
2022/12/21 00:10:03;;;;;;;14.40;8.20;;;;;;;-1.84;70.88;99343.38;102393;1297;75895;-24
2022/12/21 00:12:30;;;;;;;15.90;8.20;;;;;;;-1.97;71.36;99337.04;102338;1296;74167;-24
2022/12/21 00:14:57;;;;;;;9.50;5.50;;;;;;;-2.04;71.57;99338.42;102404;1299;61025;-24
2022/12/21 00:17:25;;;;;;;8.60;5.40;;;;;;;-2.14;71.96;99334.73;102369;1297;61806;-24
2022/12/21 00:19:52;;;;;;;10.50;4.90;;;;;;;-2.01;72.19;99336.47;102356;1298;75153;-24
2022/12/21 00:22:20;;;;;;;16.30;8.20;;;;;;;-1.38;70.34;99337.03;102357;1299;75702;-24
2022/12/21 00:24:47;;;;;;;12.40;5.60;;;;;;;-1.12;68.92;99337.16;102391;1299;74239;-24
2022/12/21 00:27:14;;;;;;;12.10;5.10;;;;;;;-1.20;68.98;99339.95;102352;1297;61040;-24
2022/12/21 00:29:42;;;;;;;16.50;8.00;;;;;;;-1.32;69.00;99351.68;102319;1299;61889;-24
2022/12/21 00:32:10;;;;;;;12.70;7.50;;;;;;;-1.46;69.45;99352.75;102385;1297;74205;-24
2022/12/21 00:34:37;;;;;;;16.20;8.00;;;;;;;-1.65;70.18;99354.79;102347;1299;75801;-24
2022/12/21 00:37:05;;;;;;;21.10;9.10;;;;;;;-1.76;70.79;99354.38;102403;1297;74064;-24
2022/12/21 00:39:32;;;;;;;15.20;8.60;;;;;;;-1.83;71.11;99355.27;102432;1289;61185;-24
2022/12/21 00:42:00;;;;;;;15.60;8.10;;;;;;;-1.93;71.23;99347.15;102302;1297;61663;-24
2022/12/21 00:44:28;;;;;;;12.30;6.60;;;;;;;-2.03;71.73;99353.36;102405;1299;75283;-24
2022/12/21 00:46:55;;;;;;;14.90;7.10;;;;;;;-2.11;72.25;99342.99;102356;1298;75778;-24
2022/12/21 00:49:22;;;;;;;9.80;5.60;;;;;;;-1.89;72.00;99341.10;102330;1297;74396;-24
2022/12/21 00:51:53;;;;;;;17.50;8.30;;;;;;;-1.19;70.23;99335.46;102380;1297;61151;-24
2022/12/21 00:54:20;;;;;;;18.00;7.30;;;;;;;-0.84;68.79;99328.49;102345;1298;61672;-24
2022/12/21 00:56:47;;;;;;;17.00;8.80;;;;;;;-0.90;68.40;99318.96;102365;1301;75237;-24
2022/12/21 00:59:14;;;;;;;13.10;7.20;;;;;;;-1.02;68.78;99315.91;102425;1299;75862;-24
2022/12/21 01:01:42;;;;;;;13.50;7.10;;;;;;;-1.21;69.40;99308.95;102313;1302;74193;-24
2022/12/21 01:04:09;;;;;;;17.20;7.90;;;;;;;-1.35;69.86;99306.81;102424;1299;61086;-24
2022/12/21 01:06:37;;;;;;;20.60;9.30;;;;;;;-1.51;70.08;99301.10;102386;1291;61526;-24
2022/12/21 01:09:05;;;;;;;17.50;8.70;;;;;;;-1.59;70.79;99303.73;102332;1292;75234;-24
2022/12/21 01:11:32;;;;;;;16.60;7.00;;;;;;;-1.67;71.26;99298.46;102197;1302;75729;-24
2022/12/21 01:14:01;;;;;;;12.50;7.30;;;;;;;-1.74;71.21;99296.61;102434;1299;74514;-24
2022/12/21 01:16:30;;;;;;;11.60;5.40;;;;;;;-1.70;71.45;99295.49;102337;1302;62541;-24
2022/12/21 01:19:02;;;;;;;9.70;5.00;;;;;;;-1.13;69.78;99292.55;102145;1300;61691;-24
2022/12/21 01:21:32;;;;;;;16.40;8.30;;;;;;;-0.84;68.43;99288.41;102192;1294;75655;-24
2022/12/21 01:23:59;;;;;;;14.00;7.70;;;;;;;-0.85;68.38;99290.34;102438;1301;75751;-26
2022/12/21 01:26:26;;;;;;;18.90;8.70;;;;;;;-0.96;68.60;99285.41;102388;1291;74010;-27
2022/12/21 01:28:53;;;;;;;14.50;7.90;;;;;;;-1.07;68.94;99281.95;102273;1297;61417;-25
2022/12/21 01:31:21;;;;;;;11.80;6.10;;;;;;;-1.25;69.45;99277.05;102414;1291;61672;-26
2022/12/21 01:33:48;;;;;;;12.60;6.70;;;;;;;-1.37;70.05;99280.13;102425;1297;75431;-27
2022/12/21 01:36:16;;;;;;;12.30;7.60;;;;;;;-1.48;70.39;99277.86;102445;1289;75577;-27
2022/12/21 01:38:44;;;;;;;10.80;6.20;;;;;;;-1.51;70.68;99276.44;102206;1302;74290;-24
2022/12/21 01:41:18;;;;;;;14.10;6.30;;;;;;;-1.57;70.84;99268.61;102207;1297;61120;-24
2022/12/21 01:43:57;;;;;;;13.90;6.40;;;;;;;-1.46;71.02;99268.45;102210;1299;61145;-24
2022/12/21 01:46:27;;;;;;;13.10;7.20;;;;;;;-0.78;68.92;99265.94;102141;1302;74391;-24
2022/12/21 01:49:11;;;;;;;16.70;8.10;;;;;;;-0.43;67.75;99258.84;102386;1305;75673;-24
2022/12/21 01:51:38;;;;;;;9.50;5.80;;;;;;;-0.44;67.51;99262.46;102368;1302;74240;-25
2022/12/21 01:54:14;;;;;;;13.40;7.20;;;;;;;-0.65;67.32;99261.41;102355;1297;61475;-25
2022/12/21 01:56:43;;;;;;;21.00;8.60;;;;;;;-0.82;68.14;99267.73;102282;1300;62256;-24
2022/12/21 01:59:41;;;;;;;13.50;6.10;;;;;;;-0.98;68.48;99269.95;102147;1301;74067;-24
2022/12/21 02:02:20;;;;;;;18.60;9.00;;;;;;;-1.13;69.27;99268.68;102115;1299;75668;-24
2022/12/21 02:04:47;;;;;;;18.30;9.10;;;;;;;-1.20;69.51;99263.61;102311;1295;71929;-24
2022/12/21 02:14:56;;;;;;;15.80;6.80;;;;;;;-1.01;70.04;99259.81;99285;1328;599423;-23
2022/12/21 02:18:05;;;;;;;13.50;7.70;;;;;;;-0.34;68.02;99255.81;101056;1307;61593;-24
2022/12/21 02:20:48;;;;;;;16.70;7.90;;;;;;;-0.20;66.70;99249.91;101001;1307;61495;-24
2022/12/21 02:23:25;;;;;;;14.50;7.50;;;;;;;-0.35;67.20;99243.06;101049;1310;74944;-24
2022/12/21 02:26:17;;;;;;;17.30;9.70;;;;;;;-0.48;67.52;99245.88;101607;1308;76812;-24
2022/12/21 02:29:03;;;;;;;40.30;16.20;;;;;;;-0.61;67.79;99243.23;100522;1304;1410426;-24
2022/12/21 02:31:55;;;;;;;30.40;13.70;;;;;;;-0.80;67.92;99239.39;101764;1308;61171;-24
2022/12/21 02:34:32;;;;;;;23.80;11.10;;;;;;;-0.95;68.43;99237.81;101624;1307;62816;-24
2022/12/21 02:37:25;;;;;;;24.30;9.20;;;;;;;-1.09;69.24;99229.88;101546;1308;73759;-24
2022/12/21 02:40:00;;;;;;;21.80;10.30;;;;;;;-1.16;68.99;99226.02;101751;1305;76940;-23
2022/12/21 02:45:48;;;;;;;10.20;6.40;;;;;;;-1.33;69.80;99217.50;101816;1304;61308;-24
2022/12/21 02:48:29;;;;;;;13.00;6.90;;;;;;;-1.07;69.69;99214.48;101802;1299;62732;-24
2022/12/21 02:50:57;;;;;;;12.20;6.80;;;;;;;-0.31;67.93;99211.20;101841;1308;73490;-24
2022/12/21 02:53:29;;;;;;;15.90;7.70;;;;;;;-0.08;66.67;99214.33;101703;1305;76735;-24
2022/12/21 02:55:56;;;;;;;16.60;8.10;;;;;;;-0.16;66.29;99212.21;101594;1301;73932;-24
2022/12/21 02:58:24;;;;;;;15.90;9.30;;;;;;;-0.35;66.85;99214.76;101876;1297;61763;-24
2022/12/21 03:00:56;;;;;;;22.10;10.70;;;;;;;-0.45;66.94;99213.38;101858;1305;62857;-24
2022/12/21 03:03:49;;;;;;;20.70;11.20;;;;;;;-0.56;67.38;99211.16;101505;1305;75556;-24
2022/12/21 03:06:43;;;;;;;19.70;10.50;;;;;;;-0.74;67.62;99213.30;101861;1305;76800;-24
2022/12/21 03:09:34;;;;;;;21.70;10.60;;;;;;;-0.85;67.81;99212.92;101748;1301;75208;-24
2022/12/21 03:12:29;;;;;;;19.90;11.40;;;;;;;-0.96;68.33;99211.43;101857;1304;62100;-24
2022/12/21 03:15:28;;;;;;;16.40;8.70;;;;;;;-1.08;68.74;99210.61;101879;1305;62848;-25
2022/12/21 03:18:10;;;;;;;19.60;9.20;;;;;;;-1.14;68.98;99218.27;101725;1305;75626;-24
2022/12/21 03:20:41;;;;;;;16.70;8.90;;;;;;;-1.18;69.10;99219.77;101570;1308;76792;-23
2022/12/21 03:23:16;;;;;;;17.80;10.00;;;;;;;-1.21;69.46;99220.88;101631;1298;75209;-23
2022/12/21 03:25:43;;;;;;;22.50;9.10;;;;;;;-1.24;69.29;99218.77;101718;1307;62303;-24
2022/12/21 03:28:13;;;;;;;16.40;6.80;;;;;;;-1.25;69.75;99216.75;101895;1305;61814;-24
2022/12/21 03:30:46;;;;;;;11.80;6.90;;;;;;;-0.61;69.26;99209.63;101529;1305;75195;-24
2022/12/21 03:33:15;;;;;;;14.10;7.30;;;;;;;0.06;66.21;99204.65;101440;1305;76882;-24
2022/12/21 03:35:49;;;;;;;17.10;7.90;;;;;;;0.25;65.40;99203.23;101651;1308;74174;-24
2022/12/21 03:38:30;;;;;;;14.40;7.70;;;;;;;0.15;65.25;99199.68;101564;1303;61226;-24
2022/12/21 03:40:58;;;;;;;17.60;7.80;;;;;;;-0.03;65.85;99196.73;101606;1300;61609;-24
2022/12/21 03:43:31;;;;;;;15.80;8.70;;;;;;;-0.26;66.32;99194.30;101682;1305;75277;-24
2022/12/21 03:46:00;;;;;;;20.90;10.10;;;;;;;-0.39;67.09;99187.39;101715;1301;76750;-24
2022/12/21 03:48:36;;;;;;;15.20;7.20;;;;;;;-0.49;67.30;99181.94;101825;1306;75241;-24
2022/12/21 03:51:06;;;;;;;14.50;7.90;;;;;;;-0.66;67.49;99176.38;101756;1300;61970;-24
2022/12/21 03:53:44;;;;;;;16.40;7.80;;;;;;;-0.79;67.89;99171.15;101656;1307;62674;-24
2022/12/21 03:56:19;;;;;;;13.90;7.50;;;;;;;-0.86;68.20;99168.14;101767;1305;75532;-24
2022/12/21 03:58:46;;;;;;;13.20;7.30;;;;;;;-0.98;68.89;99164.11;101807;1304;76568;-25
2022/12/21 04:01:32;;;;;;;19.50;9.60;;;;;;;-1.07;69.00;99167.11;101795;1308;74190;-24
2022/12/21 04:04:05;;;;;;;17.60;9.70;;;;;;;-1.06;69.10;99170.64;101591;1308;61183;-24
2022/12/21 04:06:33;;;;;;;16.40;8.60;;;;;;;-1.09;69.72;99169.73;101755;1308;61568;-24
2022/12/21 04:09:03;;;;;;;10.40;6.50;;;;;;;-1.09;69.13;99170.24;101631;1308;75601;-27
2022/12/21 04:14:23;;;;;;;12.60;7.50;;;;;;;0.22;66.64;99174.35;101697;1305;75258;-26
2022/12/21 04:16:50;;;;;;;14.60;7.00;;;;;;;0.19;65.50;99169.84;101523;1307;61422;-25
2022/12/21 04:22:04;;;;;;;12.30;7.00;;;;;;;-0.21;66.31;99165.79;101832;1305;75398;-24
2022/12/21 04:30:04;;;;;;;11.70;7.50;;;;;;;-0.75;67.70;99156.38;101676;1300;62293;-24
2022/12/21 04:32:31;;;;;;;9.40;5.70;;;;;;;-0.86;68.47;99162.34;101573;1308;62622;-24
2022/12/21 04:34:59;;;;;;;19.40;8.90;;;;;;;-0.92;68.49;99157.96;101874;1305;75655;-24
2022/12/21 04:37:32;;;;;;;14.90;8.20;;;;;;;-1.00;69.10;99148.15;101884;1305;75710;-24
2022/12/21 04:40:00;;;;;;;16.70;8.80;;;;;;;-1.04;68.84;99147.93;101846;1305;75283;-23
2022/12/21 04:42:27;;;;;;;26.10;9.80;;;;;;;-1.07;69.09;99155.53;101678;1307;61173;-25
2022/12/21 04:44:54;;;;;;;21.20;10.40;;;;;;;-1.06;68.92;99159.58;101859;1298;62881;-24
2022/12/21 04:47:21;;;;;;;22.30;10.70;;;;;;;-1.06;69.22;99160.27;101671;1300;75489;-23
2022/12/21 04:49:48;;;;;;;15.30;7.30;;;;;;;-1.06;68.93;99165.38;101836;1305;76652;-24
2022/12/21 04:52:16;;;;;;;17.20;8.10;;;;;;;-0.35;68.11;99163.55;101855;1297;72914;-23
2022/12/21 04:54:43;;;;;;;13.00;7.10;;;;;;;0.24;66.11;99160.94;101838;1305;61811;-24
2022/12/21 04:57:10;;;;;;;14.30;6.20;;;;;;;0.43;65.11;99152.21;101754;1299;61857;-24
2022/12/21 04:59:37;;;;;;;14.80;8.10;;;;;;;0.32;64.75;99157.26;101756;1306;75569;-23
2022/12/21 05:02:04;;;;;;;14.60;7.70;;;;;;;0.18;65.44;99157.58;101686;1305;75715;-24
2022/12/21 05:04:32;;;;;;;15.30;8.30;;;;;;;-0.03;65.78;99154.76;101879;1304;75191;-24
2022/12/21 05:06:59;;;;;;;15.50;8.10;;;;;;;-0.20;66.28;99155.16;101787;1305;61105;-24
2022/12/21 05:09:26;;;;;;;15.00;8.40;;;;;;;-0.34;66.84;99141.70;101784;1303;62850;-24
2022/12/21 05:11:53;;;;;;;16.60;9.70;;;;;;;-0.51;66.79;99148.24;101835;1305;61138;-24
2022/12/21 05:14:20;;;;;;;16.10;9.20;;;;;;;-0.66;67.29;99146.02;101905;1305;76776;-24
2022/12/21 05:16:48;;;;;;;22.10;9.00;;;;;;;-0.76;67.47;99142.77;101903;1303;73963;-24
2022/12/21 05:19:15;;;;;;;19.30;9.50;;;;;;;-0.88;67.88;99135.66;101753;1306;62064;-24
2022/12/21 05:21:42;;;;;;;14.40;8.30;;;;;;;-0.96;68.24;99132.17;101857;1297;62863;-23
2022/12/21 05:24:09;;;;;;;18.50;9.20;;;;;;;-1.03;68.85;99133.27;101791;1308;75732;-24
2022/12/21 05:26:37;;;;;;;15.20;8.40;;;;;;;-1.11;68.58;99129.75;101831;1303;77009;-24
2022/12/21 05:29:04;;;;;;;8.80;4.40;;;;;;;-1.12;69.02;99117.52;101825;1305;75224;-23
2022/12/21 05:31:31;;;;;;;5.40;2.70;;;;;;;-0.97;69.05;99109.02;101851;1304;62647;-23
2022/12/21 05:33:58;;;;;;;11.60;6.40;;;;;;;-0.30;67.70;99108.44;101743;1298;62603;-23
2022/12/21 05:36:25;;;;;;;11.90;6.20;;;;;;;-0.01;66.44;99111.83;101747;1307;75607;-23
2022/12/21 05:38:52;;;;;;;22.20;10.40;;;;;;;-0.07;65.81;99118.05;101886;1304;77199;-23
2022/12/21 05:41:19;;;;;;;22.70;12.10;;;;;;;-0.19;66.26;99117.61;101671;1308;74938;-23
2022/12/21 05:43:47;;;;;;;21.00;12.60;;;;;;;-0.24;66.71;99115.23;101798;1308;61761;-24
2022/12/21 05:46:14;;;;;;;23.40;14.50;;;;;;;-0.40;66.98;99117.31;101660;1305;61751;-24
2022/12/21 05:48:53;;;;;;;20.00;9.60;;;;;;;-0.49;67.34;99120.72;101811;1305;74582;-24
2022/12/21 05:51:20;;;;;;;13.50;8.70;;;;;;;-0.60;67.40;99115.13;101697;1308;77214;-24
2022/12/21 05:53:47;;;;;;;19.10;9.60;;;;;;;-0.66;67.81;99116.17;101774;1306;74162;-23
2022/12/21 05:56:14;;;;;;;15.60;9.60;;;;;;;-0.76;68.17;99126.54;101765;1305;62089;-23
2022/12/21 05:58:41;;;;;;;24.40;13.30;;;;;;;-0.82;68.54;99131.04;101875;1305;62759;-23
2022/12/21 06:01:09;;;;;;;29.80;14.40;;;;;;;-0.85;68.79;99129.42;101824;1297;74521;-23
2022/12/21 06:03:37;;;;;;;25.80;13.40;;;;;;;-0.86;68.80;99133.53;101680;1306;76518;-23
2022/12/21 06:06:15;;;;;;;24.60;14.50;;;;;;;-0.89;68.88;99137.39;101680;1305;75563;-24
2022/12/21 06:08:43;;;;;;;29.30;13.90;;;;;;;-0.91;69.13;99136.96;101657;1308;61218;-24
2022/12/21 06:11:15;;;;;;;14.60;7.90;;;;;;;-0.92;69.25;99134.61;101926;1311;62303;-24
2022/12/21 06:13:42;;;;;;;15.50;7.60;;;;;;;-0.25;69.20;99140.85;101530;1311;74515;-24
2022/12/21 06:16:14;;;;;;;13.40;7.20;;;;;;;0.49;66.96;99138.52;101690;1308;75782;-24
2022/12/21 06:18:41;;;;;;;19.60;9.90;;;;;;;0.64;65.04;99135.53;101647;1307;74437;-24
2022/12/21 06:21:10;;;;;;;20.60;10.60;;;;;;;0.57;64.97;99138.85;101728;1308;62711;-24
2022/12/21 06:23:37;;;;;;;21.30;11.50;;;;;;;0.41;65.16;99143.41;101973;1302;61764;-24
2022/12/21 06:26:05;;;;;;;23.40;13.00;;;;;;;0.24;65.22;99144.90;101890;1303;73488;-24
2022/12/21 06:28:32;;;;;;;22.70;11.70;;;;;;;0.12;65.89;99146.86;101911;1301;76687;-24
2022/12/21 06:31:09;;;;;;;23.20;11.40;;;;;;;0.02;66.17;99145.18;102012;1302;75247;-24
2022/12/21 06:33:36;;;;;;;14.10;8.20;;;;;;;-0.09;66.22;99145.92;101986;1301;62050;-24
2022/12/21 06:36:05;;;;;;;19.10;10.40;;;;;;;-0.23;66.28;99146.09;102017;1300;62014;-24
2022/12/21 06:38:32;;;;;;;17.80;9.50;;;;;;;-0.35;66.91;99145.80;102048;1297;76519;-24
2022/12/21 06:41:05;;;;;;;23.90;11.10;;;;;;;-0.43;67.24;99152.40;102018;1301;75763;-24
2022/12/21 06:43:33;;;;;;;15.40;9.50;;;;;;;-0.54;67.58;99150.57;101932;1304;74052;-24
2022/12/21 06:46:02;;;;;;;16.70;10.00;;;;;;;-0.64;67.47;99151.91;101966;1301;62215;-24
2022/12/21 06:48:30;;;;;;;14.40;8.00;;;;;;;-0.75;67.87;99154.86;101982;1302;62855;-24
2022/12/21 06:51:03;;;;;;;18.50;9.20;;;;;;;-0.88;68.12;99155.58;102020;1306;76340;-24
2022/12/21 06:53:31;;;;;;;19.00;9.80;;;;;;;-0.96;68.51;99144.80;101941;1296;77109;-25
2022/12/21 06:56:09;;;;;;;17.10;9.10;;;;;;;-1.08;69.32;99134.41;101928;1305;74170;-27
2022/12/21 06:58:46;;;;;;;13.20;7.70;;;;;;;-1.06;69.83;99129.79;102044;1300;62421;-26
2022/12/21 07:01:15;;;;;;;9.50;5.10;;;;;;;-0.38;68.97;99134.82;102015;1293;61158;-27
2022/12/21 07:03:42;;;;;;;13.70;7.20;;;;;;;0.07;66.98;99132.88;101918;1301;76235;-26
2022/12/21 07:06:12;;;;;;;18.80;9.40;;;;;;;0.21;66.22;99125.02;102056;1303;76750;-25
2022/12/21 07:08:39;;;;;;;7.90;5.80;;;;;;;0.19;65.99;99121.88;101987;1303;75325;-24
2022/12/21 07:11:11;;;;;;;13.40;7.20;;;;;;;0.10;66.05;99123.55;101922;1301;62074;-24
2022/12/21 07:13:40;;;;;;;20.00;11.00;;;;;;;0.09;66.26;99125.47;101794;1300;61848;-24
2022/12/21 07:16:07;;;;;;;26.80;10.70;;;;;;;0.15;66.06;99127.65;101999;1300;74549;-24
2022/12/21 07:18:35;;;;;;;17.50;9.30;;;;;;;0.28;66.12;99127.84;102106;1300;75689;-24
2022/12/21 07:21:05;;;;;;;17.70;10.70;;;;;;;0.37;65.87;99130.06;102005;1303;74891;-24
2022/12/21 07:23:33;;;;;;;25.70;10.60;;;;;;;0.36;65.48;99131.13;101954;1302;61178;-25
2022/12/21 07:26:00;;;;;;;27.30;13.10;;;;;;;0.36;65.91;99132.84;101921;1294;61720;-25
2022/12/21 07:28:35;;;;;;;21.00;10.00;;;;;;;0.39;65.95;99131.35;102002;1303;75387;-24
2022/12/21 07:31:07;;;;;;;16.90;10.40;;;;;;;0.43;65.18;99124.04;102090;1301;76917;-24
2022/12/21 07:33:35;;;;;;;30.50;13.40;;;;;;;0.46;65.08;99121.67;101932;1302;74040;-24
2022/12/21 07:36:03;;;;;;;23.10;11.10;;;;;;;0.54;65.53;99118.33;101955;1301;62584;-24
2022/12/21 07:38:31;;;;;;;28.70;15.40;;;;;;;0.53;65.27;99124.34;101925;1301;61111;-25
2022/12/21 07:40:59;;;;;;;33.60;16.80;;;;;;;0.47;65.10;99127.48;101920;1302;76417;-24
2022/12/21 07:43:26;;;;;;;27.10;10.90;;;;;;;0.46;65.30;99129.02;101982;1305;74452;-24
2022/12/21 07:46:06;;;;;;;31.50;17.30;;;;;;;0.42;65.37;99129.36;101987;1300;75622;-25
2022/12/21 07:48:34;;;;;;;32.70;16.00;;;;;;;0.42;65.66;99137.22;102019;1302;62081;-25
2022/12/21 07:51:02;;;;;;;29.20;18.00;;;;;;;0.48;65.75;99143.33;102190;1301;62944;-27
2022/12/21 07:53:29;;;;;;;32.40;16.00;;;;;;;0.43;66.00;99147.44;102016;1301;76336;-25
2022/12/21 07:56:07;;;;;;;32.70;17.20;;;;;;;0.51;66.12;99149.68;101945;1294;76302;-25
2022/12/21 07:58:35;;;;;;;31.00;17.00;;;;;;;0.58;65.45;99141.73;101962;1303;75308;-26
2022/12/21 08:01:06;;;;;;;31.10;17.50;;;;;;;0.66;65.77;99137.69;101915;1301;61059;-25
2022/12/21 08:03:34;;;;;;;37.60;17.50;;;;;;;0.77;65.61;99145.13;101921;1293;61802;-25
2022/12/21 08:06:02;;;;;;;30.10;15.40;;;;;;;0.84;65.46;99147.75;101963;1302;76382;-25
2022/12/21 08:08:29;;;;;;;32.10;16.40;;;;;;;0.79;65.01;99151.69;102007;1305;76552;-25
2022/12/21 08:10:56;;;;;;;27.50;15.10;;;;;;;0.69;65.66;99150.35;102008;1301;73938;-25
2022/12/21 08:13:24;;;;;;;28.50;14.30;;;;;;;0.64;65.66;99156.73;102048;1304;61323;-25
2022/12/21 08:16:06;;;;;;;31.60;16.60;;;;;;;0.58;66.40;99149.94;101947;1298;61850;-24
2022/12/21 08:18:34;;;;;;;29.50;16.10;;;;;;;0.58;66.43;99163.27;102000;1301;75316;-23
2022/12/21 08:21:01;;;;;;;25.60;13.90;;;;;;;0.61;66.18;99171.04;101999;1301;75885;-23
2022/12/21 08:23:28;;;;;;;29.00;13.90;;;;;;;0.71;65.83;99167.18;101939;1302;73830;-24
2022/12/21 08:26:03;;;;;;;24.80;13.40;;;;;;;0.82;65.53;99164.05;101929;1305;61110;-24
2022/12/21 08:28:31;;;;;;;17.10;8.70;;;;;;;0.89;65.93;99153.19;102025;1301;62562;-23
2022/12/21 08:31:12;;;;;;;20.40;12.20;;;;;;;0.91;65.18;99144.19;101930;1305;76520;-24
2022/12/21 08:33:43;;;;;;;27.70;16.10;;;;;;;0.89;64.77;99136.77;102018;1301;75150;-25
2022/12/21 08:36:12;;;;;;;28.80;13.90;;;;;;;0.92;65.46;99131.85;101967;1302;73998;-25
2022/12/21 08:38:39;;;;;;;33.00;15.70;;;;;;;1.01;65.63;99122.95;102008;1302;61806;-25
2022/12/21 08:41:27;;;;;;;31.50;15.70;;;;;;;1.07;65.82;99112.27;102026;1300;62874;-24
2022/12/21 08:43:54;;;;;;;15.20;8.10;;;;;;;1.08;65.43;99112.26;101998;1300;76539;-23
2022/12/21 08:46:21;;;;;;;18.10;9.10;;;;;;;1.03;64.99;99108.88;101985;1301;76358;-24
2022/12/21 08:48:49;;;;;;;25.60;12.90;;;;;;;0.93;65.23;99113.52;101913;1300;75127;-24
2022/12/21 08:51:16;;;;;;;27.10;10.60;;;;;;;0.92;65.30;99106.38;101902;1305;62272;-24
2022/12/21 08:53:43;;;;;;;24.20;12.80;;;;;;;0.93;65.10;99104.99;101917;1300;61883;-24
2022/12/21 08:56:17;;;;;;;19.70;10.20;;;;;;;0.98;65.33;99096.89;102013;1301;75377;-23
2022/12/21 08:58:44;;;;;;;17.20;10.00;;;;;;;1.00;65.09;99093.05;101998;1302;76644;-24
2022/12/21 09:01:11;;;;;;;10.30;6.70;;;;;;;0.96;64.78;99090.31;102215;1302;74146;-24
2022/12/21 09:03:39;;;;;;;20.40;11.20;;;;;;;0.93;64.55;99088.75;102006;1300;61177;-27
2022/12/21 09:06:06;;;;;;;12.60;5.40;;;;;;;0.97;64.57;99090.10;105865;1295;61586;-24
2022/12/21 09:08:35;;;;;;;17.80;9.70;;;;;;;1.02;64.80;99089.38;105734;1295;75938;-24
2022/12/21 09:11:12;;;;;;;13.40;7.30;;;;;;;1.02;64.74;99089.36;105702;1292;74071;-24
2022/12/21 09:13:39;;;;;;;20.30;11.50;;;;;;;1.12;64.71;99088.81;105597;1295;74744;-24
2022/12/21 09:16:26;;;;;;;12.70;7.70;;;;;;;1.20;64.53;99081.98;105696;1301;60203;-25
2022/12/21 09:18:54;;;;;;;13.50;7.40;;;;;;;1.24;64.25;99080.27;105744;1284;61798;-24
2022/12/21 09:21:21;;;;;;;15.00;8.50;;;;;;;1.22;64.17;99074.88;105795;1294;75113;-24
2022/12/21 09:23:49;;;;;;;21.50;10.20;;;;;;;1.27;63.90;99073.81;105663;1284;76226;-25
2022/12/21 09:26:16;;;;;;;18.90;9.30;;;;;;;1.32;63.54;99067.11;105724;1292;74763;-25
2022/12/21 09:28:43;;;;;;;15.40;6.40;;;;;;;1.36;63.67;99066.95;105808;1293;61674;-24
2022/12/21 09:31:20;;;;;;;26.20;12.90;;;;;;;1.37;63.65;99065.38;105810;1293;61656;-24
2022/12/21 09:33:55;;;;;;;15.30;9.50;;;;;;;1.37;63.61;99067.05;105759;1294;76298;-24
2022/12/21 09:36:23;;;;;;;16.10;6.80;;;;;;;1.42;63.62;99069.25;105568;1304;75347;-25
2022/12/21 09:38:50;;;;;;;12.80;7.30;;;;;;;1.42;63.51;99071.15;105575;1297;73407;-24
2022/12/21 09:41:35;;;;;;;15.70;7.90;;;;;;;1.49;63.07;99066.20;105778;1295;60190;-24
2022/12/21 09:44:30;;;;;;;20.60;11.10;;;;;;;1.55;62.99;99066.45;105749;1295;61430;-24
2022/12/21 09:46:59;;;;;;;20.60;12.00;;;;;;;1.64;63.07;99064.19;105694;1295;75881;-24
2022/12/21 09:49:52;;;;;;;23.00;12.00;;;;;;;1.68;63.17;99061.79;105642;1299;76471;-24
2022/12/21 09:52:37;;;;;;;17.90;9.10;;;;;;;1.78;63.02;99062.86;105709;1299;73661;-24
2022/12/21 09:55:20;;;;;;;18.10;9.60;;;;;;;1.82;62.84;99062.69;105593;1290;61464;-25
2022/12/21 09:57:55;;;;;;;20.70;11.20;;;;;;;1.89;63.05;99054.48;105727;1293;62256;-24
2022/12/21 10:00:23;;;;;;;20.40;11.20;;;;;;;1.96;62.76;99050.45;105600;1297;74535;-24
2022/12/21 10:02:50;;;;;;;21.60;14.50;;;;;;;1.95;61.88;99054.77;105769;1293;75260;-24
2022/12/21 10:06:00;;;;;;;18.50;9.60;;;;;;;2.00;61.53;99046.16;105756;1287;73461;-24
2022/12/21 10:09:41;;;;;;;17.70;9.70;;;;;;;1.98;61.33;99055.14;105344;1300;58733;-24
2022/12/21 10:12:40;;;;;;;13.90;8.00;;;;;;;2.09;61.58;99051.02;105121;1301;61149;-24
2022/12/21 10:15:41;;;;;;;12.00;6.50;;;;;;;2.16;61.27;99048.66;105849;1284;75640;-24
2022/12/21 10:18:29;;;;;;;12.00;6.90;;;;;;;2.27;61.39;99047.11;105760;1292;76311;-25
2022/12/21 10:21:03;;;;;;;16.80;9.60;;;;;;;2.28;61.33;99042.79;105714;1294;73704;-24
2022/12/21 10:23:33;;;;;;;21.50;11.10;;;;;;;2.29;61.22;99041.04;105650;1298;60593;-24
2022/12/21 10:26:02;;;;;;;13.70;7.70;;;;;;;2.30;61.16;99040.13;105681;1290;60161;-25
2022/12/21 10:29:15;;;;;;;17.80;8.30;;;;;;;2.34;61.45;99038.73;105607;1297;74667;-25
2022/12/21 10:31:47;;;;;;;19.10;10.60;;;;;;;2.42;61.24;99040.95;104957;1303;76268;-24
2022/12/21 10:34:19;;;;;;;25.60;16.30;;;;;;;2.46;60.61;99039.19;104830;1301;73844;-24
2022/12/21 10:36:47;;;;;;;18.90;12.60;;;;;;;2.56;60.79;99041.15;105009;1303;61417;-25
2022/12/21 10:39:16;;;;;;;14.00;9.20;;;;;;;2.60;60.58;99035.48;105013;1305;62441;-24
2022/12/21 10:41:56;;;;;;;17.60;10.30;;;;;;;2.49;59.78;99030.65;104864;1306;75805;-24
2022/12/21 10:44:23;;;;;;;23.10;14.40;;;;;;;2.50;60.34;99026.98;104955;1302;76340;-24
2022/12/21 10:46:50;;;;;;;13.90;8.10;;;;;;;2.58;60.60;99018.08;104930;1299;73534;-24
2022/12/21 10:49:36;;;;;;;22.10;12.10;;;;;;;2.60;60.57;99014.86;105100;1302;61715;-24
2022/12/21 10:52:36;;;;;;;18.30;11.30;;;;;;;2.58;60.48;99017.38;104959;1307;62163;-24
2022/12/21 10:55:25;;;;;;;18.90;10.40;;;;;;;2.62;60.22;99017.34;104875;1306;75948;-24
2022/12/21 10:58:03;;;;;;;20.00;11.40;;;;;;;2.73;60.51;99019.39;104968;1306;75269;-24
2022/12/21 11:00:31;;;;;;;16.80;9.50;;;;;;;2.93;60.49;99027.69;104708;1306;74905;-25
2022/12/21 11:03:00;;;;;;;19.60;10.00;;;;;;;2.99;58.70;99030.13;105307;1293;60335;-24
2022/12/21 11:05:31;;;;;;;15.40;7.80;;;;;;;3.12;59.19;99026.17;105582;1297;61384;-24
2022/12/21 11:08:13;;;;;;;15.90;9.00;;;;;;;3.31;59.94;99014.59;105614;1297;75848;-25
2022/12/21 11:10:42;;;;;;;15.40;9.60;;;;;;;3.39;59.85;99010.55;105869;1290;76405;-25
2022/12/21 11:13:22;;;;;;;10.50;5.30;;;;;;;3.39;60.05;99006.96;105691;1295;73544;-25
2022/12/21 11:15:54;;;;;;;21.70;10.40;;;;;;;3.26;60.18;99004.52;105654;1288;61607;-24
2022/12/21 11:18:41;;;;;;;17.20;9.30;;;;;;;3.11;59.86;99004.11;105718;1288;61403;-24
2022/12/21 11:21:37;;;;;;;20.80;11.10;;;;;;;3.00;60.15;98998.69;105709;1295;75916;-24
2022/12/21 11:24:17;;;;;;;20.40;9.60;;;;;;;2.93;61.68;98986.48;105597;1294;76415;-24
2022/12/21 11:27:20;;;;;;;18.80;9.60;;;;;;;2.82;62.49;98985.69;105727;1295;74598;-24
2022/12/21 11:29:53;;;;;;;18.40;7.60;;;;;;;2.69;62.32;98981.17;105626;1294;60538;-24
2022/12/21 11:32:22;;;;;;;18.90;11.00;;;;;;;2.62;62.06;98984.09;105572;1298;59995;-24
2022/12/21 11:35:01;;;;;;;16.60;8.20;;;;;;;2.59;61.90;98984.26;105655;1298;75685;-24
2022/12/21 11:37:36;;;;;;;16.70;9.60;;;;;;;2.58;61.42;98980.02;105595;1296;74170;-25
2022/12/21 11:40:11;;;;;;;20.00;9.80;;;;;;;2.62;60.84;98981.74;105711;1295;74883;-25
2022/12/21 11:43:02;;;;;;;20.10;10.70;;;;;;;2.60;60.61;98978.59;105644;1286;61588;-24
2022/12/21 11:45:59;;;;;;;16.30;8.80;;;;;;;2.62;60.30;98983.27;105674;1295;62348;-25
2022/12/21 11:48:59;;;;;;;9.90;6.00;;;;;;;2.59;60.04;98978.25;105731;1293;74798;-24
2022/12/21 11:51:47;;;;;;;12.60;7.40;;;;;;;2.54;60.19;98975.73;105659;1298;74155;-24
2022/12/21 11:54:24;;;;;;;20.10;10.60;;;;;;;2.55;60.16;98967.64;105632;1297;72183;-25
2022/12/21 11:57:28;;;;;;;;;;;;;;;2.47;60.07;98966.46;105693;1293;61533;-24
2022/12/21 12:00:03;;;;;;;20.80;8.60;;;;;;;2.47;59.89;98960.52;105095;1300;60922;-25
2022/12/21 12:02:56;;;;;;;16.10;9.40;;;;;;;2.33;60.64;98963.07;105676;1287;76206;-24
2022/12/21 12:05:30;;;;;;;19.20;11.00;;;;;;;2.34;61.21;98960.28;105679;1290;75254;-24
2022/12/21 12:08:04;;;;;;;;;;;;;;;2.43;60.63;98956.24;105738;1289;75022;-24